Time;durP1;ratioP1;P1;durP2;ratioP2;P2;SDS_P1;SDS_P2;PMS_P1;PMS_P2;Temp;Humidity;BMP_temperature;BMP_pressure;BME280_temperature;BME280_humidity;BME280_pressure;Samples;Min_cycle;Max_cycle;Signal;HPM_P1;HPM_P2
2021/01/17 00:01:33;;;;;;;124.07;56.38;;;;;;;;;;5098914;28;20332;-49
2021/01/17 00:03:59;;;;;;;166.80;78.35;;;;;;;;;;5094740;28;20028;-49
2021/01/17 00:06:25;;;;;;;170.13;78.57;;;;;;;;;;5074082;28;20047;-50
2021/01/17 00:08:51;;;;;;;99.82;48.33;;;;;;;;;;5093686;28;20012;-50
2021/01/17 00:11:17;;;;;;;108.55;53.50;;;;;;;;;;5094011;28;20497;-50
2021/01/17 00:13:43;;;;;;;91.93;46.42;;;;;;;;;;5095926;28;20035;-49
2021/01/17 00:16:09;;;;;;;90.80;44.08;;;;;;;;;;5102261;28;20039;-50
2021/01/17 00:18:35;;;;;;;92.90;46.63;;;;;;;;;;5100066;28;20028;-50
2021/01/17 00:21:02;;;;;;;91.90;44.17;;;;;;;;;;5104716;28;20024;-50
2021/01/17 00:23:28;;;;;;;96.50;45.95;;;;;;;;;;5100653;28;20889;-49
2021/01/17 00:25:54;;;;;;;90.35;44.40;;;;;;;;;;5095490;28;20114;-49
2021/01/17 00:28:20;;;;;;;92.78;45.85;;;;;;;;;;5099820;28;20043;-50
2021/01/17 00:30:46;;;;;;;90.78;43.45;;;;;;;;;;5096402;28;20028;-49
2021/01/17 00:33:13;;;;;;;86.25;43.58;;;;;;;;;;5106677;28;20019;-51
2021/01/17 00:35:39;;;;;;;95.65;45.78;;;;;;;;;;5123258;27;20066;-51
2021/01/17 00:38:05;;;;;;;116.70;54.72;;;;;;;;;;5132177;27;20494;-51
2021/01/17 00:40:31;;;;;;;109.45;50.78;;;;;;;;;;5132428;27;20450;-50
2021/01/17 00:42:58;;;;;;;116.90;55.25;;;;;;;;;;5131913;27;20072;-51
2021/01/17 00:45:25;;;;;;;117.18;54.17;;;;;;;;;;5130478;27;20478;-49
2021/01/17 00:47:51;;;;;;;90.85;44.10;;;;;;;;;;5131341;27;20075;-50
2021/01/17 00:50:18;;;;;;;81.15;38.50;;;;;;;;;;5132334;28;20386;-50
2021/01/17 00:52:44;;;;;;;95.95;43.97;;;;;;;;;;5131806;27;20046;-49
2021/01/17 00:55:11;;;;;;;97.35;45.08;;;;;;;;;;5113385;28;20054;-50
2021/01/17 00:57:37;;;;;;;99.60;45.92;;;;;;;;;;5132565;28;20386;-51
2021/01/17 01:00:10;;;;;;;91.25;42.85;;;;;;;;;;5098750;28;20032;-50
2021/01/17 01:02:37;;;;;;;100.03;47.00;;;;;;;;;;5111838;28;20031;-49
2021/01/17 01:05:04;;;;;;;100.80;48.13;;;;;;;;;;5111241;28;20035;-50
2021/01/17 01:07:30;;;;;;;98.65;45.25;;;;;;;;;;5113749;28;20420;-49
2021/01/17 01:09:56;;;;;;;109.75;51.30;;;;;;;;;;5116227;28;20043;-51
2021/01/17 01:12:22;;;;;;;100.15;48.13;;;;;;;;;;5116500;28;20033;-50
2021/01/17 01:14:48;;;;;;;94.68;45.88;;;;;;;;;;5101825;27;20383;-51
2021/01/17 01:17:14;;;;;;;103.80;48.70;;;;;;;;;;5095716;28;20518;-49
2021/01/17 01:19:40;;;;;;;83.72;40.03;;;;;;;;;;5097739;27;20056;-50
2021/01/17 01:22:06;;;;;;;69.47;33.08;;;;;;;;;;5100039;27;20063;-50
2021/01/17 01:24:32;;;;;;;62.67;29.98;;;;;;;;;;5096575;27;20012;-49
2021/01/17 01:26:58;;;;;;;66.70;32.97;;;;;;;;;;5096586;27;20047;-49
2021/01/17 01:29:24;;;;;;;85.07;39.92;;;;;;;;;;5100721;27;20047;-48
2021/01/17 01:31:50;;;;;;;94.95;42.30;;;;;;;;;;5105603;27;20059;-50
2021/01/17 01:34:16;;;;;;;105.07;44.90;;;;;;;;;;5111752;27;20034;-51
2021/01/17 01:36:43;;;;;;;88.28;40.22;;;;;;;;;;5101809;27;20514;-47
2021/01/17 01:39:10;;;;;;;89.00;41.03;;;;;;;;;;5099805;27;20028;-47
2021/01/17 01:41:37;;;;;;;88.30;43.63;;;;;;;;;;5078672;28;20427;-47
2021/01/17 01:44:04;;;;;;;104.95;50.42;;;;;;;;;;5098566;27;20012;-47
2021/01/17 01:46:31;;;;;;;140.32;69.95;;;;;;;;;;5098977;27;20023;-47
2021/01/17 01:48:57;;;;;;;123.05;60.13;;;;;;;;;;5100675;27;20055;-47
2021/01/17 01:51:24;;;;;;;78.78;39.22;;;;;;;;;;5097095;27;20024;-47
2021/01/17 01:53:52;;;;;;;66.22;31.35;;;;;;;;;;5098425;27;20356;-47
2021/01/17 01:56:18;;;;;;;59.28;29.10;;;;;;;;;;5100219;27;20462;-47
2021/01/17 01:58:44;;;;;;;58.95;29.42;;;;;;;;;;5078401;28;20040;-47
2021/01/17 02:01:10;;;;;;;64.50;31.20;;;;;;;;;;5093795;28;20028;-47
2021/01/17 02:03:37;;;;;;;71.20;35.65;;;;;;;;;;5097574;28;20490;-47
2021/01/17 02:06:10;;;;;;;77.22;38.67;;;;;;;;;;5099255;27;20514;-47
2021/01/17 02:08:36;;;;;;;87.63;42.97;;;;;;;;;;5098233;27;20020;-47
2021/01/17 02:11:12;;;;;;;93.60;44.40;;;;;;;;;;5097488;27;20065;-47
2021/01/17 02:13:39;;;;;;;79.32;39.08;;;;;;;;;;5099451;27;20103;-47
2021/01/17 02:16:06;;;;;;;74.97;37.08;;;;;;;;;;5095632;27;20024;-47
2021/01/17 02:18:36;;;;;;;74.95;36.78;;;;;;;;;;5098031;28;20043;-47
2021/01/17 02:21:03;;;;;;;83.35;40.92;;;;;;;;;;5115080;28;20097;-47
2021/01/17 02:23:52;;;;;;;92.53;43.47;;;;;;;;;;5098646;28;20055;-47
2021/01/17 02:26:18;;;;;;;98.80;44.22;;;;;;;;;;5023683;28;20061;-47
2021/01/17 02:28:45;;;;;;;73.35;36.92;;;;;;;;;;5032344;28;20103;-47
2021/01/17 02:31:11;;;;;;;77.38;35.60;;;;;;;;;;5032404;28;20458;-47
2021/01/17 02:33:39;;;;;;;65.32;30.85;;;;;;;;;;5032785;28;20106;-47
2021/01/17 02:36:23;;;;;;;62.85;30.17;;;;;;;;;;5047244;28;20130;-48
2021/01/17 02:39:01;;;;;;;59.53;30.70;;;;;;;;;;5051866;28;20029;-47
2021/01/17 02:41:46;;;;;;;65.03;31.88;;;;;;;;;;5051647;28;20458;-47
2021/01/17 02:44:12;;;;;;;42.50;22.52;;;;;;;;;;5039318;28;20520;-48
2021/01/17 02:46:38;;;;;;;32.58;16.38;;;;;;;;;;5050383;28;20648;-48
2021/01/17 02:49:04;;;;;;;38.88;19.08;;;;;;;;;;5051147;28;20037;-47
2021/01/17 02:51:30;;;;;;;42.65;20.13;;;;;;;;;;5051208;28;20124;-50
2021/01/17 02:54:06;;;;;;;39.83;20.20;;;;;;;;;;5050618;28;20748;-48
2021/01/17 02:56:33;;;;;;;39.53;19.02;;;;;;;;;;5050661;28;20516;-47
2021/01/17 02:59:00;;;;;;;45.97;22.42;;;;;;;;;;5050952;28;20108;-48
2021/01/17 03:01:33;;;;;;;43.50;21.27;;;;;;;;;;5050924;28;20043;-47
2021/01/17 03:04:05;;;;;;;63.25;32.42;;;;;;;;;;5102483;27;20039;-48
2021/01/17 03:06:32;;;;;;;67.60;30.13;;;;;;;;;;5117191;27;20016;-48
2021/01/17 03:08:59;;;;;;;65.85;31.33;;;;;;;;;;5116390;27;20019;-49
2021/01/17 03:11:25;;;;;;;43.20;21.30;;;;;;;;;;5114370;28;20022;-49
2021/01/17 03:13:53;;;;;;;104.57;48.45;;;;;;;;;;5118786;27;20026;-48
2021/01/17 03:16:19;;;;;;;61.10;29.75;;;;;;;;;;5116341;27;20034;-48
2021/01/17 03:18:45;;;;;;;52.38;25.27;;;;;;;;;;5103015;27;20454;-49
2021/01/17 03:21:11;;;;;;;49.22;24.90;;;;;;;;;;5117181;27;20110;-49
2021/01/17 03:23:37;;;;;;;46.55;24.27;;;;;;;;;;5115148;27;20047;-49
2021/01/17 03:26:03;;;;;;;45.85;23.98;;;;;;;;;;5113938;28;20089;-50
2021/01/17 03:28:29;;;;;;;45.33;22.48;;;;;;;;;;5114656;27;20064;-50
2021/01/17 03:30:55;;;;;;;39.88;20.85;;;;;;;;;;5113909;27;20034;-49
2021/01/17 03:33:21;;;;;;;45.70;21.35;;;;;;;;;;5125374;27;20050;-50
2021/01/17 03:35:47;;;;;;;46.78;22.95;;;;;;;;;;5134050;27;20054;-50
2021/01/17 03:38:13;;;;;;;65.70;32.38;;;;;;;;;;5134403;27;20076;-50
2021/01/17 03:40:39;;;;;;;51.28;26.00;;;;;;;;;;5133732;27;20031;-50
2021/01/17 03:43:05;;;;;;;52.67;24.98;;;;;;;;;;5134313;27;20027;-49
2021/01/17 03:45:31;;;;;;;48.60;23.70;;;;;;;;;;5134406;27;20106;-49
2021/01/17 03:47:57;;;;;;;56.63;27.42;;;;;;;;;;5134149;27;20015;-49
2021/01/17 03:50:23;;;;;;;57.85;28.33;;;;;;;;;;5134336;27;20026;-50
2021/01/17 03:52:49;;;;;;;53.40;27.48;;;;;;;;;;5134193;27;20027;-50
2021/01/17 03:55:15;;;;;;;55.28;27.35;;;;;;;;;;5134290;27;20028;-50
2021/01/17 03:57:41;;;;;;;50.63;25.77;;;;;;;;;;5133790;27;20030;-50
2021/01/17 04:00:08;;;;;;;48.05;24.02;;;;;;;;;;5133930;27;20019;-50
2021/01/17 04:02:34;;;;;;;41.03;21.60;;;;;;;;;;5134110;27;20452;-49
2021/01/17 04:05:00;;;;;;;52.97;26.35;;;;;;;;;;5133746;27;20531;-49
2021/01/17 04:07:28;;;;;;;82.57;36.83;;;;;;;;;;5133837;27;20019;-50
2021/01/17 04:09:54;;;;;;;100.63;43.63;;;;;;;;;;5133528;27;20106;-49
2021/01/17 04:12:20;;;;;;;109.07;47.60;;;;;;;;;;5133689;27;20030;-50
2021/01/17 04:14:46;;;;;;;66.03;30.63;;;;;;;;;;5133623;27;20355;-50
2021/01/17 04:17:12;;;;;;;82.97;38.55;;;;;;;;;;5133797;27;20030;-50
2021/01/17 04:19:38;;;;;;;67.88;30.25;;;;;;;;;;5133658;27;20081;-49
2021/01/17 04:22:04;;;;;;;53.95;26.58;;;;;;;;;;5133445;27;20045;-49
2021/01/17 04:24:30;;;;;;;48.75;25.13;;;;;;;;;;5133633;27;20020;-50
2021/01/17 04:26:57;;;;;;;93.13;37.42;;;;;;;;;;5133292;27;20030;-50
2021/01/17 04:29:23;;;;;;;54.97;26.15;;;;;;;;;;5133174;27;20015;-48
2021/01/17 04:31:49;;;;;;;53.25;25.58;;;;;;;;;;5133302;27;20059;-50
2021/01/17 04:34:15;;;;;;;51.03;25.15;;;;;;;;;;5133273;27;20030;-49
2021/01/17 04:36:46;;;;;;;46.13;23.05;;;;;;;;;;5133266;27;20054;-49
2021/01/17 04:39:12;;;;;;;44.97;21.60;;;;;;;;;;5133077;27;20034;-50
2021/01/17 04:41:41;;;;;;;43.35;22.80;;;;;;;;;;5132997;27;20035;-50
2021/01/17 04:44:08;;;;;;;47.28;24.13;;;;;;;;;;5133109;27;20019;-50
2021/01/17 04:46:36;;;;;;;59.88;27.77;;;;;;;;;;5133130;27;20023;-50
2021/01/17 04:49:04;;;;;;;62.72;29.73;;;;;;;;;;5133319;27;20062;-50
2021/01/17 04:51:30;;;;;;;66.15;30.83;;;;;;;;;;5133055;27;20098;-50
2021/01/17 04:54:01;;;;;;;89.95;39.80;;;;;;;;;;5133220;27;20028;-49
2021/01/17 04:56:28;;;;;;;59.70;30.75;;;;;;;;;;5132719;28;20027;-49
2021/01/17 04:59:14;;;;;;;56.58;27.25;;;;;;;;;;5133149;28;20029;-50
2021/01/17 05:01:47;;;;;;;97.28;34.45;;;;;;;;;;5132695;28;20596;-50
2021/01/17 05:04:12;;;;;;;;;;;;;;;;;;5133562;28;20080;-50
2021/01/17 05:06:40;;;;;;;52.50;23.55;;;;;;;;;;5132916;28;20340;-50
2021/01/17 05:09:06;;;;;;;53.28;24.98;;;;;;;;;;5133118;28;20110;-50
2021/01/17 05:11:39;;;;;;;59.17;29.20;;;;;;;;;;5132675;28;20072;-49
2021/01/17 05:14:08;;;;;;;54.30;26.85;;;;;;;;;;5133068;28;20027;-49
2021/01/17 05:16:37;;;;;;;54.15;27.13;;;;;;;;;;5132852;28;20023;-50
2021/01/17 05:19:03;;;;;;;48.83;25.50;;;;;;;;;;5133150;28;20019;-49
2021/01/17 05:21:30;;;;;;;49.72;26.23;;;;;;;;;;5132618;28;20035;-49
2021/01/17 05:23:58;;;;;;;54.08;26.73;;;;;;;;;;5133032;28;20411;-50
2021/01/17 05:26:24;;;;;;;71.88;34.50;;;;;;;;;;5133038;28;20023;-50
2021/01/17 05:28:50;;;;;;;79.53;38.17;;;;;;;;;;5132820;28;20034;-50
2021/01/17 05:31:18;;;;;;;77.50;36.40;;;;;;;;;;5132753;28;20030;-50
2021/01/17 05:33:45;;;;;;;75.78;37.00;;;;;;;;;;5132690;28;20528;-50
2021/01/17 05:36:15;;;;;;;63.45;31.13;;;;;;;;;;5132643;28;20050;-49
2021/01/17 05:38:41;;;;;;;64.68;31.38;;;;;;;;;;5132698;28;20434;-50
2021/01/17 05:41:07;;;;;;;55.97;28.67;;;;;;;;;;5132768;28;20470;-49
2021/01/17 05:43:33;;;;;;;49.42;25.48;;;;;;;;;;5132904;28;20031;-49
2021/01/17 05:45:59;;;;;;;36.80;17.73;;;;;;;;;;5128590;28;20540;-49
2021/01/17 05:48:25;;;;;;;37.00;20.10;;;;;;;;;;5132965;28;20624;-49
2021/01/17 05:50:51;;;;;;;36.83;19.90;;;;;;;;;;5132580;28;20035;-49
2021/01/17 05:53:18;;;;;;;30.77;15.93;;;;;;;;;;5133697;27;20034;-49
2021/01/17 05:55:45;;;;;;;46.35;22.90;;;;;;;;;;5136537;27;20031;-50
2021/01/17 05:58:23;;;;;;;51.67;24.67;;;;;;;;;;5136033;27;20026;-50
2021/01/17 06:00:53;;;;;;;63.72;30.50;;;;;;;;;;5136470;27;20031;-51
2021/01/17 06:03:20;;;;;;;56.00;28.65;;;;;;;;;;5136180;27;20022;-50
2021/01/17 06:05:48;;;;;;;48.97;25.45;;;;;;;;;;5136484;27;20491;-50
2021/01/17 06:08:18;;;;;;;50.97;26.98;;;;;;;;;;5135972;27;20041;-49
2021/01/17 06:10:44;;;;;;;45.03;22.52;;;;;;;;;;5136274;27;20023;-50
2021/01/17 06:13:10;;;;;;;48.08;24.50;;;;;;;;;;5135838;27;20034;-50
2021/01/17 06:15:36;;;;;;;36.05;18.80;;;;;;;;;;5136163;27;20023;-49
2021/01/17 06:18:03;;;;;;;41.97;20.25;;;;;;;;;;5136213;27;20023;-50
2021/01/17 06:20:29;;;;;;;48.67;23.45;;;;;;;;;;5117961;27;20478;-50
2021/01/17 06:22:57;;;;;;;79.88;31.05;;;;;;;;;;5135971;27;20037;-50
2021/01/17 06:25:30;;;;;;;63.00;30.45;;;;;;;;;;5135997;27;20034;-50
2021/01/17 06:28:09;;;;;;;57.67;28.27;;;;;;;;;;5135527;27;20114;-50
2021/01/17 06:30:35;;;;;;;87.38;45.28;;;;;;;;;;5135305;27;20103;-49
2021/01/17 06:33:02;;;;;;;82.93;40.28;;;;;;;;;;5136014;27;20019;-50
2021/01/17 06:35:38;;;;;;;230.05;85.90;;;;;;;;;;5135147;27;20051;-49
2021/01/17 06:38:18;;;;;;;582.05;191.38;;;;;;;;;;5135580;27;20034;-49
2021/01/17 06:40:44;;;;;;;428.20;210.90;;;;;;;;;;5135608;27;20042;-49
2021/01/17 06:43:11;;;;;;;301.15;143.82;;;;;;;;;;5135540;27;20031;-50
2021/01/17 06:45:41;;;;;;;136.98;62.45;;;;;;;;;;5135273;27;20035;-49
2021/01/17 06:48:07;;;;;;;83.88;42.47;;;;;;;;;;5135306;27;20058;-49
2021/01/17 06:50:33;;;;;;;84.78;40.78;;;;;;;;;;5135625;27;20023;-49
2021/01/17 06:53:00;;;;;;;273.63;119.70;;;;;;;;;;5135374;27;20047;-49
2021/01/17 06:55:26;;;;;;;294.23;135.77;;;;;;;;;;5135447;27;20050;-49
2021/01/17 06:57:53;;;;;;;259.58;115.45;;;;;;;;;;5135180;27;20015;-50
2021/01/17 07:00:19;;;;;;;217.27;98.80;;;;;;;;;;5135025;27;20031;-50
2021/01/17 07:02:52;;;;;;;311.23;129.57;;;;;;;;;;5116558;27;20386;-50
2021/01/17 07:05:32;;;;;;;368.35;142.90;;;;;;;;;;5133315;27;20088;-49
2021/01/17 07:08:04;;;;;;;314.17;126.95;;;;;;;;;;5133824;27;20015;-50
2021/01/17 07:10:40;;;;;;;186.43;76.80;;;;;;;;;;5133736;27;20518;-50
2021/01/17 07:13:07;;;;;;;247.40;104.65;;;;;;;;;;5133227;27;20023;-49
2021/01/17 07:15:35;;;;;;;220.30;94.25;;;;;;;;;;5133038;27;20023;-50
2021/01/17 07:18:05;;;;;;;205.95;92.40;;;;;;;;;;5133027;27;20038;-49
2021/01/17 07:20:35;;;;;;;330.88;142.63;;;;;;;;;;5132936;27;20172;-49
2021/01/17 07:23:03;;;;;;;253.68;113.18;;;;;;;;;;5132438;27;20015;-48
2021/01/17 07:25:29;;;;;;;206.23;91.00;;;;;;;;;;5118103;27;20525;-50
2021/01/17 07:28:02;;;;;;;144.00;67.97;;;;;;;;;;5096980;28;20374;-49
2021/01/17 07:30:47;;;;;;;127.10;61.47;;;;;;;;;;5116437;27;20022;-50
2021/01/17 07:33:17;;;;;;;132.00;62.72;;;;;;;;;;5119473;27;20454;-50
2021/01/17 07:35:45;;;;;;;103.60;54.20;;;;;;;;;;5129245;27;20044;-50
2021/01/17 07:38:13;;;;;;;99.30;52.47;;;;;;;;;;5114201;27;20078;-50
2021/01/17 07:40:50;;;;;;;79.32;42.60;;;;;;;;;;5099295;28;20102;-50
2021/01/17 07:43:16;;;;;;;103.05;54.72;;;;;;;;;;5096990;28;20012;-50
2021/01/17 07:45:42;;;;;;;109.18;57.38;;;;;;;;;;5096999;28;20039;-49
2021/01/17 07:48:09;;;;;;;102.65;53.35;;;;;;;;;;5093195;28;20020;-48
2021/01/17 07:50:37;;;;;;;101.53;53.75;;;;;;;;;;5093375;28;20034;-48
2021/01/17 07:53:04;;;;;;;114.82;56.47;;;;;;;;;;5093194;28;20019;-50
2021/01/17 07:55:31;;;;;;;109.13;57.83;;;;;;;;;;5097311;28;20093;-49
2021/01/17 07:57:57;;;;;;;117.38;59.63;;;;;;;;;;5109382;28;20483;-48
2021/01/17 08:00:24;;;;;;;80.40;45.05;;;;;;;;;;5096521;28;20035;-48
2021/01/17 08:02:50;;;;;;;69.30;39.10;;;;;;;;;;5107436;28;20024;-50
2021/01/17 08:05:17;;;;;;;65.40;36.78;;;;;;;;;;5110020;28;20058;-50
2021/01/17 08:07:43;;;;;;;68.60;39.22;;;;;;;;;;5114219;27;20017;-50
2021/01/17 08:10:09;;;;;;;72.40;41.45;;;;;;;;;;5108226;28;20047;-50
2021/01/17 08:12:37;;;;;;;193.05;86.32;;;;;;;;;;5106813;27;20032;-50
2021/01/17 08:15:12;;;;;;;180.05;84.70;;;;;;;;;;5120588;27;20035;-50
2021/01/17 08:17:38;;;;;;;96.07;53.63;;;;;;;;;;5105586;27;20034;-50
2021/01/17 08:20:05;;;;;;;69.97;40.40;;;;;;;;;;5111320;27;20032;-49
2021/01/17 08:22:31;;;;;;;95.43;49.75;;;;;;;;;;5107268;28;20135;-51
2021/01/17 08:24:57;;;;;;;65.85;37.92;;;;;;;;;;5112746;27;20103;-49
2021/01/17 08:27:32;;;;;;;74.88;41.90;;;;;;;;;;5107074;28;20028;-50
2021/01/17 08:30:06;;;;;;;78.85;44.95;;;;;;;;;;5098858;28;20055;-49
2021/01/17 08:32:43;;;;;;;71.05;42.60;;;;;;;;;;5105028;28;20463;-50
2021/01/17 08:35:29;;;;;;;67.18;36.67;;;;;;;;;;5115289;27;20071;-49
2021/01/17 08:37:55;;;;;;;66.32;38.30;;;;;;;;;;5123623;27;20015;-50
2021/01/17 08:40:27;;;;;;;86.47;46.85;;;;;;;;;;5116170;27;20031;-49
2021/01/17 08:42:57;;;;;;;88.68;48.40;;;;;;;;;;5120093;27;20026;-50
2021/01/17 08:45:23;;;;;;;124.63;62.60;;;;;;;;;;5100392;27;20475;-50
2021/01/17 08:47:54;;;;;;;114.47;57.90;;;;;;;;;;5109277;28;20028;-50
2021/01/17 08:50:46;;;;;;;98.15;57.88;;;;;;;;;;5112303;28;20042;-49
2021/01/17 08:53:12;;;;;;;;;;;;;;;;;;5067265;28;20031;-50
2021/01/17 08:55:41;;;;;;;115.10;63.55;;;;;;;;;;5111965;28;20003;-50
2021/01/17 08:58:08;;;;;;;79.82;41.55;;;;;;;;;;5112522;28;20032;-49
2021/01/17 09:00:49;;;;;;;91.07;52.17;;;;;;;;;;5111963;28;20043;-49
2021/01/17 09:03:25;;;;;;;95.15;49.75;;;;;;;;;;5097001;28;20024;-49
2021/01/17 09:05:54;;;;;;;92.15;52.00;;;;;;;;;;5107949;28;20070;-49
2021/01/17 09:08:20;;;;;;;67.85;38.47;;;;;;;;;;5114774;28;20402;-49
2021/01/17 09:10:46;;;;;;;58.92;35.33;;;;;;;;;;5111856;28;20429;-50
2021/01/17 09:13:18;;;;;;;78.47;43.95;;;;;;;;;;5119830;28;20031;-49
2021/01/17 09:15:44;;;;;;;;;;;;;;;;;;5127020;28;20034;-50
2021/01/17 09:18:11;;;;;;;72.90;38.70;;;;;;;;;;5108698;28;19904;-50
2021/01/17 09:20:42;;;;;;;80.28;45.15;;;;;;;;;;5126554;28;20127;-50
2021/01/17 09:23:10;;;;;;;86.88;49.30;;;;;;;;;;5108902;28;20069;-51
2021/01/17 09:25:37;;;;;;;112.43;56.80;;;;;;;;;;5104297;28;20019;-50
2021/01/17 09:28:03;;;;;;;75.60;42.67;;;;;;;;;;5124274;27;20115;-51
2021/01/17 09:30:29;;;;;;;86.80;48.40;;;;;;;;;;5127188;27;20579;-50
2021/01/17 09:32:57;;;;;;;104.18;57.35;;;;;;;;;;5125753;27;20060;-49
2021/01/17 09:35:23;;;;;;;129.25;67.10;;;;;;;;;;5119184;27;20048;-50
2021/01/17 09:37:56;;;;;;;119.38;62.92;;;;;;;;;;5130458;27;20023;-50
2021/01/17 09:40:22;;;;;;;131.85;68.72;;;;;;;;;;5123312;27;20054;-49
2021/01/17 09:42:49;;;;;;;101.63;55.38;;;;;;;;;;5123143;27;20020;-50
2021/01/17 09:45:15;;;;;;;89.97;50.58;;;;;;;;;;5116256;27;20032;-49
2021/01/17 09:47:41;;;;;;;78.50;45.53;;;;;;;;;;5115988;28;20015;-49
2021/01/17 09:50:08;;;;;;;88.13;50.40;;;;;;;;;;5115597;28;20023;-50
2021/01/17 09:52:37;;;;;;;101.55;56.20;;;;;;;;;;5115375;28;20028;-49
2021/01/17 09:55:06;;;;;;;84.55;47.28;;;;;;;;;;5115627;28;20012;-49
2021/01/17 09:57:36;;;;;;;75.63;42.97;;;;;;;;;;5115326;28;20072;-49
2021/01/17 10:00:06;;;;;;;80.93;47.10;;;;;;;;;;5114570;28;20523;-49
2021/01/17 10:02:32;;;;;;;76.38;42.15;;;;;;;;;;5097062;28;20043;-49
2021/01/17 10:04:58;;;;;;;80.60;47.05;;;;;;;;;;5102553;27;20027;-50
2021/01/17 10:07:24;;;;;;;95.28;53.25;;;;;;;;;;5098783;27;20375;-50
2021/01/17 10:09:51;;;;;;;88.28;51.63;;;;;;;;;;5098035;27;20476;-51
2021/01/17 10:12:21;;;;;;;106.40;62.13;;;;;;;;;;5096696;27;20020;-50
2021/01/17 10:14:48;;;;;;;86.55;50.03;;;;;;;;;;5100405;27;20052;-51
2021/01/17 10:17:14;;;;;;;87.95;51.30;;;;;;;;;;5110051;27;20025;-51
2021/01/17 10:19:41;;;;;;;124.47;68.55;;;;;;;;;;5125289;27;20482;-49
2021/01/17 10:22:11;;;;;;;98.82;55.70;;;;;;;;;;5096874;28;20485;-50
2021/01/17 10:24:37;;;;;;;121.15;65.72;;;;;;;;;;5115473;27;20506;-51
2021/01/17 10:27:04;;;;;;;74.75;42.03;;;;;;;;;;5126511;27;20030;-51
2021/01/17 10:29:37;;;;;;;82.45;47.97;;;;;;;;;;5110832;27;20043;-50
2021/01/17 10:32:05;;;;;;;78.65;45.28;;;;;;;;;;5104602;27;20031;-50
2021/01/17 10:34:32;;;;;;;134.68;65.80;;;;;;;;;;5128722;27;20048;-49
2021/01/17 10:36:59;;;;;;;61.45;35.13;;;;;;;;;;5120932;27;20028;-49
2021/01/17 10:39:26;;;;;;;70.93;43.42;;;;;;;;;;5119245;27;20106;-49
2021/01/17 10:42:02;;;;;;;65.57;38.75;;;;;;;;;;5122012;27;20498;-51
2021/01/17 10:44:30;;;;;;;66.95;39.90;;;;;;;;;;5116865;27;20099;-48
2021/01/17 10:47:08;;;;;;;70.95;40.28;;;;;;;;;;5103797;28;20478;-50
2021/01/17 10:49:36;;;;;;;66.78;39.20;;;;;;;;;;5101006;27;20034;-50
2021/01/17 10:52:10;;;;;;;77.38;45.38;;;;;;;;;;5125113;27;20038;-50
2021/01/17 10:54:41;;;;;;;104.75;61.92;;;;;;;;;;5101566;27;20020;-50
2021/01/17 10:57:07;;;;;;;103.40;59.92;;;;;;;;;;5113893;27;20027;-51
2021/01/17 10:59:35;;;;;;;91.03;54.35;;;;;;;;;;5102430;27;20024;-51
2021/01/17 11:02:01;;;;;;;66.78;42.72;;;;;;;;;;5102313;27;20047;-50
2021/01/17 11:04:37;;;;;;;75.53;45.80;;;;;;;;;;5100407;27;20028;-50
2021/01/17 11:07:03;;;;;;;71.10;41.80;;;;;;;;;;5105561;27;20059;-50
2021/01/17 11:09:30;;;;;;;73.18;45.00;;;;;;;;;;5094524;27;20020;-50
2021/01/17 11:11:56;;;;;;;66.93;41.47;;;;;;;;;;5105892;27;20023;-50
2021/01/17 11:14:30;;;;;;;69.00;43.83;;;;;;;;;;5106626;27;20024;-48
2021/01/17 11:16:56;;;;;;;52.30;33.50;;;;;;;;;;5094831;27;20030;-50
2021/01/17 11:19:41;;;;;;;88.72;52.72;;;;;;;;;;5097417;28;20026;-50
2021/01/17 11:22:07;;;;;;;82.18;47.53;;;;;;;;;;5100390;27;20036;-49
2021/01/17 11:24:34;;;;;;;71.75;41.95;;;;;;;;;;5101797;27;20497;-50
2021/01/17 11:27:11;;;;;;;83.35;45.85;;;;;;;;;;5093965;27;20031;-49
2021/01/17 11:29:37;;;;;;;78.05;44.15;;;;;;;;;;5098745;27;20016;-49
2021/01/17 11:32:03;;;;;;;74.75;41.45;;;;;;;;;;5110592;27;20019;-50
2021/01/17 11:34:33;;;;;;;79.15;43.95;;;;;;;;;;5097644;27;20081;-50
2021/01/17 11:36:59;;;;;;;81.57;46.08;;;;;;;;;;5127150;27;20023;-50
2021/01/17 11:39:26;;;;;;;81.68;43.75;;;;;;;;;;5133942;27;20023;-50
2021/01/17 11:41:54;;;;;;;73.90;42.50;;;;;;;;;;5133668;27;20031;-49
2021/01/17 11:44:22;;;;;;;73.45;41.72;;;;;;;;;;5120065;27;20423;-50
2021/01/17 11:46:48;;;;;;;71.43;42.15;;;;;;;;;;5129979;27;20458;-50
2021/01/17 11:49:15;;;;;;;79.45;45.72;;;;;;;;;;5123527;27;20034;-49
2021/01/17 11:51:41;;;;;;;99.30;53.17;;;;;;;;;;5121400;27;20440;-49
2021/01/17 11:54:08;;;;;;;85.18;46.63;;;;;;;;;;5130687;27;20019;-49
2021/01/17 11:56:34;;;;;;;90.10;50.45;;;;;;;;;;5127379;27;20024;-51
2021/01/17 11:59:00;;;;;;;70.53;42.45;;;;;;;;;;5114234;27;20024;-49
2021/01/17 12:01:26;;;;;;;65.78;40.88;;;;;;;;;;5116341;27;20381;-51
2021/01/17 12:03:59;;;;;;;61.35;36.58;;;;;;;;;;5133474;27;20038;-51
2021/01/17 12:06:26;;;;;;;74.50;43.22;;;;;;;;;;5133580;27;20031;-52
2021/01/17 12:08:55;;;;;;;84.32;44.40;;;;;;;;;;5133283;27;20015;-50
2021/01/17 12:11:36;;;;;;;67.85;38.20;;;;;;;;;;5130971;27;20027;-51
2021/01/17 12:14:07;;;;;;;90.87;47.77;;;;;;;;;;5132852;27;20501;-50
2021/01/17 12:16:39;;;;;;;94.60;49.92;;;;;;;;;;5129120;27;20263;-51
2021/01/17 12:19:05;;;;;;;103.80;54.17;;;;;;;;;;5127134;27;20027;-49
2021/01/17 12:21:32;;;;;;;97.82;51.30;;;;;;;;;;5115587;27;20391;-49
2021/01/17 12:23:58;;;;;;;72.63;41.97;;;;;;;;;;5115361;27;20566;-49
2021/01/17 12:26:25;;;;;;;68.90;39.22;;;;;;;;;;5124602;27;20034;-50
2021/01/17 12:28:53;;;;;;;58.00;35.15;;;;;;;;;;5132737;27;20156;-49
2021/01/17 12:31:20;;;;;;;55.10;32.38;;;;;;;;;;5131554;27;20027;-50
2021/01/17 12:33:47;;;;;;;65.28;39.38;;;;;;;;;;5117954;27;20023;-50
2021/01/17 12:36:14;;;;;;;107.07;52.83;;;;;;;;;;5115577;27;20047;-50
2021/01/17 12:38:40;;;;;;;93.80;51.53;;;;;;;;;;5098031;27;20027;-50
2021/01/17 12:41:10;;;;;;;76.63;45.03;;;;;;;;;;5111579;28;20111;-50
2021/01/17 12:43:37;;;;;;;83.05;47.17;;;;;;;;;;5092960;28;20108;-49
2021/01/17 12:46:05;;;;;;;84.70;46.95;;;;;;;;;;5116852;27;20039;-49
2021/01/17 12:48:31;;;;;;;49.00;29.05;;;;;;;;;;5114943;27;20058;-50
2021/01/17 12:50:57;;;;;;;63.67;37.80;;;;;;;;;;5116334;27;20023;-49
2021/01/17 12:53:23;;;;;;;75.38;44.08;;;;;;;;;;5115151;27;20117;-49
2021/01/17 12:55:49;;;;;;;83.90;48.72;;;;;;;;;;5113770;28;20051;-50
2021/01/17 12:58:15;;;;;;;107.32;58.58;;;;;;;;;;5117300;27;20023;-51
2021/01/17 13:00:42;;;;;;;66.05;39.15;;;;;;;;;;5117725;28;20023;-50
2021/01/17 13:03:08;;;;;;;74.15;40.13;;;;;;;;;;5101353;27;20442;-49
2021/01/17 13:05:34;;;;;;;93.25;50.33;;;;;;;;;;5118077;27;20427;-50
2021/01/17 13:08:00;;;;;;;189.55;91.57;;;;;;;;;;5132203;27;20041;-49
2021/01/17 13:10:27;;;;;;;87.85;45.95;;;;;;;;;;5132140;27;20024;-48
2021/01/17 13:12:53;;;;;;;109.20;53.85;;;;;;;;;;5134265;27;20496;-50
2021/01/17 13:15:24;;;;;;;71.60;39.45;;;;;;;;;;5122078;27;20428;-51
2021/01/17 13:17:50;;;;;;;69.50;37.87;;;;;;;;;;5119702;27;20016;-50
2021/01/17 13:20:16;;;;;;;82.57;48.45;;;;;;;;;;5123914;27;20334;-51
2021/01/17 13:22:42;;;;;;;83.70;48.83;;;;;;;;;;5126578;27;20028;-50
2021/01/17 13:25:09;;;;;;;90.78;54.50;;;;;;;;;;5126892;27;20027;-51
2021/01/17 13:27:36;;;;;;;72.93;43.30;;;;;;;;;;5132737;27;20035;-49
2021/01/17 13:30:03;;;;;;;73.80;44.45;;;;;;;;;;5122584;27;20034;-50
2021/01/17 13:32:29;;;;;;;87.57;51.00;;;;;;;;;;5132141;27;20405;-51
2021/01/17 13:34:55;;;;;;;81.15;46.17;;;;;;;;;;5138419;27;20047;-49
2021/01/17 13:37:21;;;;;;;88.63;51.83;;;;;;;;;;5099630;28;20035;-49
2021/01/17 13:39:48;;;;;;;84.90;49.50;;;;;;;;;;5107444;28;20030;-50
2021/01/17 13:42:23;;;;;;;89.82;51.70;;;;;;;;;;5104676;28;20026;-50
2021/01/17 13:44:50;;;;;;;80.88;45.78;;;;;;;;;;5111390;28;20024;-49
2021/01/17 13:47:26;;;;;;;71.95;41.45;;;;;;;;;;5117719;27;20039;-51
2021/01/17 13:49:53;;;;;;;132.48;75.80;;;;;;;;;;5113474;28;20462;-49
2021/01/17 13:52:19;;;;;;;110.28;62.67;;;;;;;;;;5120984;27;20102;-51
2021/01/17 13:54:45;;;;;;;104.75;57.85;;;;;;;;;;5107899;27;20072;-50
2021/01/17 13:57:11;;;;;;;91.13;50.70;;;;;;;;;;5113824;27;20093;-50
2021/01/17 13:59:39;;;;;;;102.28;56.35;;;;;;;;;;5113595;28;20028;-50
2021/01/17 14:02:09;;;;;;;143.95;81.07;;;;;;;;;;5105915;28;20028;-50
2021/01/17 14:04:35;;;;;;;162.55;91.00;;;;;;;;;;5112055;27;20027;-50
2021/01/17 14:07:01;;;;;;;162.05;86.80;;;;;;;;;;5125299;27;20027;-50
2021/01/17 14:09:27;;;;;;;124.93;67.95;;;;;;;;;;5102952;28;20035;-50
2021/01/17 14:11:53;;;;;;;100.38;55.83;;;;;;;;;;5112449;28;20028;-49
2021/01/17 14:14:19;;;;;;;98.35;56.38;;;;;;;;;;5102484;28;20023;-49
2021/01/17 14:16:46;;;;;;;89.72;50.45;;;;;;;;;;5105344;28;20390;-48
2021/01/17 14:19:12;;;;;;;94.53;54.83;;;;;;;;;;5106658;28;20048;-51